sensor_id;sensor_type;location;lat;lon;timestamp;temperature;humidity
816;DHT22;25928;51.062;13.752;2022-11-25T00:00:26;7.50;99.90
816;DHT22;25928;51.062;13.752;2022-11-25T00:02:52;7.50;99.90
816;DHT22;25928;51.062;13.752;2022-11-25T00:05:17;7.50;99.90
816;DHT22;25928;51.062;13.752;2022-11-25T00:07:43;7.50;99.90
816;DHT22;25928;51.062;13.752;2022-11-25T00:10:09;7.50;99.90
816;DHT22;25928;51.062;13.752;2022-11-25T00:12:34;7.60;99.90
816;DHT22;25928;51.062;13.752;2022-11-25T00:17:26;7.60;99.90
816;DHT22;25928;51.062;13.752;2022-11-25T00:19:51;7.50;99.90
816;DHT22;25928;51.062;13.752;2022-11-25T00:22:17;7.40;99.90
816;DHT22;25928;51.062;13.752;2022-11-25T00:24:43;7.50;99.90
816;DHT22;25928;51.062;13.752;2022-11-25T00:27:08;7.50;99.90
816;DHT22;25928;51.062;13.752;2022-11-25T00:29:34;7.50;99.90
816;DHT22;25928;51.062;13.752;2022-11-25T00:32:00;7.50;99.90
816;DHT22;25928;51.062;13.752;2022-11-25T00:34:26;7.60;99.90
816;DHT22;25928;51.062;13.752;2022-11-25T00:36:51;7.70;99.90
816;DHT22;25928;51.062;13.752;2022-11-25T00:39:18;7.60;99.90
816;DHT22;25928;51.062;13.752;2022-11-25T00:41:45;7.70;99.90
816;DHT22;25928;51.062;13.752;2022-11-25T00:44:30;7.60;99.90
816;DHT22;25928;51.062;13.752;2022-11-25T00:49:30;7.70;97.20
816;DHT22;25928;51.062;13.752;2022-11-25T00:51:56;7.70;91.70
816;DHT22;25928;51.062;13.752;2022-11-25T00:54:22;7.70;83.60
816;DHT22;25928;51.062;13.752;2022-11-25T00:56:48;7.60;91.50
816;DHT22;25928;51.062;13.752;2022-11-25T00:59:14;7.60;94.10
816;DHT22;25928;51.062;13.752;2022-11-25T01:01:40;7.50;94.60
816;DHT22;25928;51.062;13.752;2022-11-25T01:04:06;7.50;98.60
816;DHT22;25928;51.062;13.752;2022-11-25T01:06:33;7.50;99.90
816;DHT22;25928;51.062;13.752;2022-11-25T01:08:58;7.60;99.90
816;DHT22;25928;51.062;13.752;2022-11-25T01:11:24;7.50;99.90
816;DHT22;25928;51.062;13.752;2022-11-25T01:13:50;7.50;97.70
816;DHT22;25928;51.062;13.752;2022-11-25T01:16:19;7.40;92.40
816;DHT22;25928;51.062;13.752;2022-11-25T01:18:45;7.30;89.50
816;DHT22;25928;51.062;13.752;2022-11-25T01:21:31;7.20;94.10
816;DHT22;25928;51.062;13.752;2022-11-25T01:23:59;7.00;93.90
816;DHT22;25928;51.062;13.752;2022-11-25T01:26:25;7.00;99.90
816;DHT22;25928;51.062;13.752;2022-11-25T01:29:15;6.90;99.90
816;DHT22;25928;51.062;13.752;2022-11-25T01:31:42;6.80;99.90
816;DHT22;25928;51.062;13.752;2022-11-25T01:34:17;6.80;99.90
816;DHT22;25928;51.062;13.752;2022-11-25T01:36:43;6.70;99.90
816;DHT22;25928;51.062;13.752;2022-11-25T01:39:16;6.80;99.90
816;DHT22;25928;51.062;13.752;2022-11-25T01:41:42;6.80;99.90
816;DHT22;25928;51.062;13.752;2022-11-25T01:44:14;6.80;99.90
816;DHT22;25928;51.062;13.752;2022-11-25T01:47:11;6.80;99.90
816;DHT22;25928;51.062;13.752;2022-11-25T01:49:41;6.90;99.90
816;DHT22;25928;51.062;13.752;2022-11-25T01:54:52;7.10;99.90
816;DHT22;25928;51.062;13.752;2022-11-25T01:57:43;7.20;99.90
816;DHT22;25928;51.062;13.752;2022-11-25T02:00:10;7.20;99.90
816;DHT22;25928;51.062;13.752;2022-11-25T02:02:36;7.30;99.90
816;DHT22;25928;51.062;13.752;2022-11-25T02:05:06;7.30;99.90
816;DHT22;25928;51.062;13.752;2022-11-25T02:07:35;7.30;99.90
816;DHT22;25928;51.062;13.752;2022-11-25T02:10:07;7.40;99.90
816;DHT22;25928;51.062;13.752;2022-11-25T02:12:36;7.50;99.90
816;DHT22;25928;51.062;13.752;2022-11-25T02:15:04;7.50;99.90
816;DHT22;25928;51.062;13.752;2022-11-25T02:17:29;7.50;99.90
816;DHT22;25928;51.062;13.752;2022-11-25T02:20:03;7.50;99.90
816;DHT22;25928;51.062;13.752;2022-11-25T02:22:51;7.50;99.90
816;DHT22;25928;51.062;13.752;2022-11-25T02:25:25;7.50;92.60
816;DHT22;25928;51.062;13.752;2022-11-25T02:28:03;7.50;78.10
816;DHT22;25928;51.062;13.752;2022-11-25T02:30:29;7.50;66.00
816;DHT22;25928;51.062;13.752;2022-11-25T02:32:57;7.50;58.60
816;DHT22;25928;51.062;13.752;2022-11-25T02:37:54;7.40;58.50
816;DHT22;25928;51.062;13.752;2022-11-25T02:40:21;7.40;59.20
816;DHT22;25928;51.062;13.752;2022-11-25T02:42:49;7.40;61.10
816;DHT22;25928;51.062;13.752;2022-11-25T02:45:17;7.40;52.50
816;DHT22;25928;51.062;13.752;2022-11-25T02:47:45;7.40;47.40
816;DHT22;25928;51.062;13.752;2022-11-25T02:50:11;7.40;48.70
816;DHT22;25928;51.062;13.752;2022-11-25T02:52:38;7.40;48.50
816;DHT22;25928;51.062;13.752;2022-11-25T02:55:04;7.40;45.10
816;DHT22;25928;51.062;13.752;2022-11-25T02:57:30;7.40;49.30
816;DHT22;25928;51.062;13.752;2022-11-25T02:59:56;7.40;43.90
816;DHT22;25928;51.062;13.752;2022-11-25T03:02:21;7.40;46.40
816;DHT22;25928;51.062;13.752;2022-11-25T03:04:47;7.40;43.70
816;DHT22;25928;51.062;13.752;2022-11-25T03:07:12;7.40;42.40
816;DHT22;25928;51.062;13.752;2022-11-25T03:09:38;7.40;42.00
816;DHT22;25928;51.062;13.752;2022-11-25T03:12:04;7.40;42.90
816;DHT22;25928;51.062;13.752;2022-11-25T03:14:44;7.40;38.40
816;DHT22;25928;51.062;13.752;2022-11-25T03:17:10;7.40;29.80
816;DHT22;25928;51.062;13.752;2022-11-25T03:19:35;7.40;28.50
816;DHT22;25928;51.062;13.752;2022-11-25T03:22:01;7.40;32.10
816;DHT22;25928;51.062;13.752;2022-11-25T03:24:27;7.30;29.50
816;DHT22;25928;51.062;13.752;2022-11-25T03:26:53;7.30;31.20
816;DHT22;25928;51.062;13.752;2022-11-25T03:29:18;7.40;30.60
816;DHT22;25928;51.062;13.752;2022-11-25T03:31:44;7.40;20.90
816;DHT22;25928;51.062;13.752;2022-11-25T03:34:10;7.30;21.60
816;DHT22;25928;51.062;13.752;2022-11-25T03:36:36;7.40;20.10
816;DHT22;25928;51.062;13.752;2022-11-25T03:39:02;7.30;20.60
816;DHT22;25928;51.062;13.752;2022-11-25T03:41:28;7.30;16.10
816;DHT22;25928;51.062;13.752;2022-11-25T03:43:54;7.30;13.80
816;DHT22;25928;51.062;13.752;2022-11-25T03:46:20;7.20;16.90
816;DHT22;25928;51.062;13.752;2022-11-25T03:48:45;7.20;24.40
816;DHT22;25928;51.062;13.752;2022-11-25T03:51:11;7.30;25.60
816;DHT22;25928;51.062;13.752;2022-11-25T03:53:36;7.30;22.30
816;DHT22;25928;51.062;13.752;2022-11-25T03:56:02;7.30;20.00
816;DHT22;25928;51.062;13.752;2022-11-25T04:03:20;7.30;19.60
816;DHT22;25928;51.062;13.752;2022-11-25T04:05:45;7.40;14.50
816;DHT22;25928;51.062;13.752;2022-11-25T04:08:11;7.30;16.00
816;DHT22;25928;51.062;13.752;2022-11-25T04:10:37;7.40;14.40
816;DHT22;25928;51.062;13.752;2022-11-25T04:13:02;7.40;10.50
816;DHT22;25928;51.062;13.752;2022-11-25T04:15:28;7.40;14.40
816;DHT22;25928;51.062;13.752;2022-11-25T04:17:54;7.40;1.00
816;DHT22;25928;51.062;13.752;2022-11-25T04:20:19;7.40;1.90
816;DHT22;25928;51.062;13.752;2022-11-25T04:22:45;7.40;3.30
816;DHT22;25928;51.062;13.752;2022-11-25T04:25:10;7.40;2.90
816;DHT22;25928;51.062;13.752;2022-11-25T04:27:36;7.40;6.20
816;DHT22;25928;51.062;13.752;2022-11-25T04:30:03;7.30;8.20
816;DHT22;25928;51.062;13.752;2022-11-25T04:32:28;7.40;7.70
816;DHT22;25928;51.062;13.752;2022-11-25T04:34:54;7.40;5.30
816;DHT22;25928;51.062;13.752;2022-11-25T04:37:19;7.30;10.10
816;DHT22;25928;51.062;13.752;2022-11-25T04:39:46;7.40;12.20
816;DHT22;25928;51.062;13.752;2022-11-25T04:44:56;7.40;4.70
816;DHT22;25928;51.062;13.752;2022-11-25T04:47:22;7.50;2.30
816;DHT22;25928;51.062;13.752;2022-11-25T04:49:48;7.50;1.00
816;DHT22;25928;51.062;13.752;2022-11-25T04:54:39;7.20;10.10
816;DHT22;25928;51.062;13.752;2022-11-25T04:57:05;7.20;13.20
816;DHT22;25928;51.062;13.752;2022-11-25T04:59:30;7.20;13.00
816;DHT22;25928;51.062;13.752;2022-11-25T05:02:18;7.20;14.30
816;DHT22;25928;51.062;13.752;2022-11-25T05:04:46;7.20;12.60
816;DHT22;25928;51.062;13.752;2022-11-25T05:07:13;7.20;13.80
816;DHT22;25928;51.062;13.752;2022-11-25T05:09:39;7.10;13.40
816;DHT22;25928;51.062;13.752;2022-11-25T05:12:05;7.10;15.90
816;DHT22;25928;51.062;13.752;2022-11-25T05:14:32;7.10;15.10
816;DHT22;25928;51.062;13.752;2022-11-25T05:17:00;6.90;17.80
816;DHT22;25928;51.062;13.752;2022-11-25T05:19:26;6.70;23.60
816;DHT22;25928;51.062;13.752;2022-11-25T05:21:52;6.70;32.30
816;DHT22;25928;51.062;13.752;2022-11-25T05:24:17;6.60;29.60
816;DHT22;25928;51.062;13.752;2022-11-25T05:26:43;6.60;56.90
816;DHT22;25928;51.062;13.752;2022-11-25T05:29:09;6.50;59.70
816;DHT22;25928;51.062;13.752;2022-11-25T05:31:34;6.40;67.60
816;DHT22;25928;51.062;13.752;2022-11-25T05:34:01;6.40;89.30
816;DHT22;25928;51.062;13.752;2022-11-25T05:36:27;6.30;97.40
816;DHT22;25928;51.062;13.752;2022-11-25T05:38:54;6.20;99.90
816;DHT22;25928;51.062;13.752;2022-11-25T05:41:20;6.20;99.90
816;DHT22;25928;51.062;13.752;2022-11-25T05:43:45;6.10;99.90
816;DHT22;25928;51.062;13.752;2022-11-25T05:46:12;6.10;99.90
816;DHT22;25928;51.062;13.752;2022-11-25T05:48:37;6.10;99.90
816;DHT22;25928;51.062;13.752;2022-11-25T05:51:03;6.00;99.90
816;DHT22;25928;51.062;13.752;2022-11-25T05:53:29;6.00;99.90
816;DHT22;25928;51.062;13.752;2022-11-25T05:55:58;6.00;99.90
816;DHT22;25928;51.062;13.752;2022-11-25T06:00:51;6.10;99.90
816;DHT22;25928;51.062;13.752;2022-11-25T06:03:16;6.00;99.90
816;DHT22;25928;51.062;13.752;2022-11-25T06:05:43;6.00;99.90
816;DHT22;25928;51.062;13.752;2022-11-25T06:08:08;6.00;99.90
816;DHT22;25928;51.062;13.752;2022-11-25T06:10:38;6.00;99.90
816;DHT22;25928;51.062;13.752;2022-11-25T06:13:05;5.90;99.90
816;DHT22;25928;51.062;13.752;2022-11-25T06:15:31;5.90;99.90
816;DHT22;25928;51.062;13.752;2022-11-25T06:17:56;5.90;99.90
816;DHT22;25928;51.062;13.752;2022-11-25T06:20:22;5.80;99.90
816;DHT22;25928;51.062;13.752;2022-11-25T06:22:47;5.80;99.90
816;DHT22;25928;51.062;13.752;2022-11-25T06:25:13;5.80;99.90
816;DHT22;25928;51.062;13.752;2022-11-25T06:27:39;5.80;99.90
816;DHT22;25928;51.062;13.752;2022-11-25T06:30:05;5.70;99.90
816;DHT22;25928;51.062;13.752;2022-11-25T06:32:31;5.70;99.90
816;DHT22;25928;51.062;13.752;2022-11-25T06:34:57;5.80;99.90
816;DHT22;25928;51.062;13.752;2022-11-25T06:39:49;5.90;99.90
816;DHT22;25928;51.062;13.752;2022-11-25T06:42:14;5.70;99.90
816;DHT22;25928;51.062;13.752;2022-11-25T06:44:40;5.60;99.90
816;DHT22;25928;51.062;13.752;2022-11-25T06:47:05;5.70;99.90
816;DHT22;25928;51.062;13.752;2022-11-25T06:49:31;5.80;99.90
816;DHT22;25928;51.062;13.752;2022-11-25T06:51:57;5.70;99.00
816;DHT22;25928;51.062;13.752;2022-11-25T06:54:22;5.60;98.50
816;DHT22;25928;51.062;13.752;2022-11-25T06:56:48;5.70;99.90
816;DHT22;25928;51.062;13.752;2022-11-25T06:59:18;5.80;96.80
816;DHT22;25928;51.062;13.752;2022-11-25T07:01:45;5.80;91.30
816;DHT22;25928;51.062;13.752;2022-11-25T07:04:10;5.80;80.40
816;DHT22;25928;51.062;13.752;2022-11-25T07:06:36;5.70;70.30
816;DHT22;25928;51.062;13.752;2022-11-25T07:09:03;5.70;64.00
816;DHT22;25928;51.062;13.752;2022-11-25T07:11:31;5.60;70.40
816;DHT22;25928;51.062;13.752;2022-11-25T07:13:59;5.60;68.00
816;DHT22;25928;51.062;13.752;2022-11-25T07:16:25;5.70;70.30
816;DHT22;25928;51.062;13.752;2022-11-25T07:18:50;5.80;63.50
816;DHT22;25928;51.062;13.752;2022-11-25T07:21:19;5.80;59.90
816;DHT22;25928;51.062;13.752;2022-11-25T07:23:46;5.80;54.90
816;DHT22;25928;51.062;13.752;2022-11-25T07:26:22;5.80;54.60
816;DHT22;25928;51.062;13.752;2022-11-25T07:28:49;5.80;58.40
816;DHT22;25928;51.062;13.752;2022-11-25T07:31:24;5.80;53.40
816;DHT22;25928;51.062;13.752;2022-11-25T07:33:52;5.90;47.40
816;DHT22;25928;51.062;13.752;2022-11-25T07:36:18;5.90;37.70
816;DHT22;25928;51.062;13.752;2022-11-25T07:41:14;5.80;36.20
816;DHT22;25928;51.062;13.752;2022-11-25T07:43:44;5.90;34.00
816;DHT22;25928;51.062;13.752;2022-11-25T07:46:17;6.00;22.70
816;DHT22;25928;51.062;13.752;2022-11-25T07:48:43;6.10;15.70
816;DHT22;25928;51.062;13.752;2022-11-25T07:51:37;6.10;3.80
816;DHT22;25928;51.062;13.752;2022-11-25T07:54:06;6.20;1.90
816;DHT22;25928;51.062;13.752;2022-11-25T07:56:36;6.20;1.00
816;DHT22;25928;51.062;13.752;2022-11-25T07:59:03;6.20;1.00
816;DHT22;25928;51.062;13.752;2022-11-25T08:01:29;6.30;1.00
816;DHT22;25928;51.062;13.752;2022-11-25T08:03:55;6.30;1.00
816;DHT22;25928;51.062;13.752;2022-11-25T08:06:23;6.30;1.00
816;DHT22;25928;51.062;13.752;2022-11-25T08:08:49;6.30;1.00
816;DHT22;25928;51.062;13.752;2022-11-25T08:11:22;6.40;1.00
816;DHT22;25928;51.062;13.752;2022-11-25T08:13:48;6.40;1.00
816;DHT22;25928;51.062;13.752;2022-11-25T08:16:16;6.40;1.00
816;DHT22;25928;51.062;13.752;2022-11-25T08:18:42;6.40;1.00
816;DHT22;25928;51.062;13.752;2022-11-25T08:21:09;6.40;1.00
816;DHT22;25928;51.062;13.752;2022-11-25T08:23:36;6.40;1.00
816;DHT22;25928;51.062;13.752;2022-11-25T08:26:08;6.40;1.00
816;DHT22;25928;51.062;13.752;2022-11-25T08:28:35;6.40;1.00
816;DHT22;25928;51.062;13.752;2022-11-25T08:31:06;6.40;1.00
816;DHT22;25928;51.062;13.752;2022-11-25T08:33:32;6.50;1.00
816;DHT22;25928;51.062;13.752;2022-11-25T08:35:58;6.50;1.00
816;DHT22;25928;51.062;13.752;2022-11-25T08:40:50;6.60;1.00
816;DHT22;25928;51.062;13.752;2022-11-25T08:43:16;6.60;1.00
816;DHT22;25928;51.062;13.752;2022-11-25T08:45:42;6.60;1.00
816;DHT22;25928;51.062;13.752;2022-11-25T08:48:08;6.60;1.00
816;DHT22;25928;51.062;13.752;2022-11-25T08:50:33;6.60;1.00
816;DHT22;25928;51.062;13.752;2022-11-25T08:52:59;6.70;1.00
816;DHT22;25928;51.062;13.752;2022-11-25T08:55:26;6.70;1.00
816;DHT22;25928;51.062;13.752;2022-11-25T08:57:53;6.80;1.00
816;DHT22;25928;51.062;13.752;2022-11-25T09:00:20;6.80;1.00
816;DHT22;25928;51.062;13.752;2022-11-25T09:02:46;6.80;1.00
816;DHT22;25928;51.062;13.752;2022-11-25T09:05:13;6.80;1.00
816;DHT22;25928;51.062;13.752;2022-11-25T09:07:39;6.90;1.00
816;DHT22;25928;51.062;13.752;2022-11-25T09:10:08;7.10;1.00
816;DHT22;25928;51.062;13.752;2022-11-25T09:12:34;7.50;1.00
816;DHT22;25928;51.062;13.752;2022-11-25T09:15:00;8.00;1.00
816;DHT22;25928;51.062;13.752;2022-11-25T09:19:52;8.30;1.00
816;DHT22;25928;51.062;13.752;2022-11-25T09:22:18;8.20;1.00
816;DHT22;25928;51.062;13.752;2022-11-25T09:24:44;8.00;1.00
816;DHT22;25928;51.062;13.752;2022-11-25T09:29:36;7.90;1.00
816;DHT22;25928;51.062;13.752;2022-11-25T09:34:28;8.60;1.00
816;DHT22;25928;51.062;13.752;2022-11-25T09:36:54;8.80;1.00
816;DHT22;25928;51.062;13.752;2022-11-25T09:39:19;8.80;1.00
816;DHT22;25928;51.062;13.752;2022-11-25T09:53:52;8.60;1.00
816;DHT22;25928;51.062;13.752;2022-11-25T09:56:21;8.60;1.00
816;DHT22;25928;51.062;13.752;2022-11-25T09:58:55;8.60;1.00
816;DHT22;25928;51.062;13.752;2022-11-25T10:01:24;8.60;1.00
816;DHT22;25928;51.062;13.752;2022-11-25T10:03:57;8.50;1.00
816;DHT22;25928;51.062;13.752;2022-11-25T10:06:27;8.50;1.00
816;DHT22;25928;51.062;13.752;2022-11-25T10:09:00;8.60;1.00
816;DHT22;25928;51.062;13.752;2022-11-25T10:11:49;8.60;1.00
816;DHT22;25928;51.062;13.752;2022-11-25T10:20:01;8.70;1.00
816;DHT22;25928;51.062;13.752;2022-11-25T10:22:32;8.80;1.00
816;DHT22;25928;51.062;13.752;2022-11-25T10:25:04;8.90;1.00
816;DHT22;25928;51.062;13.752;2022-11-25T10:30:47;9.10;1.00
816;DHT22;25928;51.062;13.752;2022-11-25T10:33:32;9.10;1.00
816;DHT22;25928;51.062;13.752;2022-11-25T10:36:18;9.20;1.00
816;DHT22;25928;51.062;13.752;2022-11-25T10:38:56;9.20;1.00
816;DHT22;25928;51.062;13.752;2022-11-25T10:41:25;9.30;1.00
816;DHT22;25928;51.062;13.752;2022-11-25T10:43:51;9.40;1.00
816;DHT22;25928;51.062;13.752;2022-11-25T10:46:40;9.50;1.00
816;DHT22;25928;51.062;13.752;2022-11-25T10:49:36;9.60;1.00
816;DHT22;25928;51.062;13.752;2022-11-25T10:52:11;9.70;1.00
816;DHT22;25928;51.062;13.752;2022-11-25T10:54:37;9.80;1.00
816;DHT22;25928;51.062;13.752;2022-11-25T10:57:17;9.90;1.00
816;DHT22;25928;51.062;13.752;2022-11-25T10:59:54;10.10;1.00
816;DHT22;25928;51.062;13.752;2022-11-25T11:02:29;10.10;1.00
816;DHT22;25928;51.062;13.752;2022-11-25T11:07:34;10.30;1.00
816;DHT22;25928;51.062;13.752;2022-11-25T11:13:17;10.40;1.00
816;DHT22;25928;51.062;13.752;2022-11-25T11:15:46;10.50;1.00
816;DHT22;25928;51.062;13.752;2022-11-25T11:20:49;10.70;1.00
816;DHT22;25928;51.062;13.752;2022-11-25T11:23:16;10.80;1.00
816;DHT22;25928;51.062;13.752;2022-11-25T11:26:03;10.80;1.00
816;DHT22;25928;51.062;13.752;2022-11-25T11:28:38;10.80;1.00
816;DHT22;25928;51.062;13.752;2022-11-25T11:31:22;10.80;1.00
816;DHT22;25928;51.062;13.752;2022-11-25T11:42:28;11.10;1.00
816;DHT22;25928;51.062;13.752;2022-11-25T11:56:45;11.20;1.00
816;DHT22;25928;51.062;13.752;2022-11-25T12:04:50;11.30;1.00
816;DHT22;25928;51.062;13.752;2022-11-25T12:07:27;11.30;1.00
816;DHT22;25928;51.062;13.752;2022-11-25T12:09:55;11.30;1.00
816;DHT22;25928;51.062;13.752;2022-11-25T12:12:32;11.30;1.00
816;DHT22;25928;51.062;13.752;2022-11-25T12:15:05;11.30;1.00
816;DHT22;25928;51.062;13.752;2022-11-25T12:17:43;11.30;1.00
816;DHT22;25928;51.062;13.752;2022-11-25T12:21:22;11.40;1.00
816;DHT22;25928;51.062;13.752;2022-11-25T12:23:53;11.40;1.00
816;DHT22;25928;51.062;13.752;2022-11-25T12:26:28;11.40;1.00
816;DHT22;25928;51.062;13.752;2022-11-25T12:28:58;11.40;1.00
816;DHT22;25928;51.062;13.752;2022-11-25T12:31:50;11.30;1.00
816;DHT22;25928;51.062;13.752;2022-11-25T12:34:34;11.40;1.00
816;DHT22;25928;51.062;13.752;2022-11-25T12:37:15;11.30;1.00
816;DHT22;25928;51.062;13.752;2022-11-25T12:39:51;11.40;1.00
816;DHT22;25928;51.062;13.752;2022-11-25T12:42:23;11.40;1.00
816;DHT22;25928;51.062;13.752;2022-11-25T12:50:23;11.50;1.00
816;DHT22;25928;51.062;13.752;2022-11-25T12:55:26;11.50;1.00
816;DHT22;25928;51.062;13.752;2022-11-25T12:58:30;11.50;1.00
816;DHT22;25928;51.062;13.752;2022-11-25T13:15:40;11.50;1.00
816;DHT22;25928;51.062;13.752;2022-11-25T13:18:16;11.60;1.00
816;DHT22;25928;51.062;13.752;2022-11-25T13:20:49;11.60;1.00
816;DHT22;25928;51.062;13.752;2022-11-25T13:25:44;11.60;1.00
816;DHT22;25928;51.062;13.752;2022-11-25T13:28:34;11.60;1.00
816;DHT22;25928;51.062;13.752;2022-11-25T13:36:21;11.50;1.00
816;DHT22;25928;51.062;13.752;2022-11-25T13:46:49;11.20;1.00
816;DHT22;25928;51.062;13.752;2022-11-25T13:49:38;11.10;1.00
816;DHT22;25928;51.062;13.752;2022-11-25T13:54:39;10.90;1.00
816;DHT22;25928;51.062;13.752;2022-11-25T13:59:57;10.90;1.00
816;DHT22;25928;51.062;13.752;2022-11-25T14:08:13;10.50;1.00
816;DHT22;25928;51.062;13.752;2022-11-25T14:13:56;10.30;1.00
816;DHT22;25928;51.062;13.752;2022-11-25T14:22:17;10.00;1.00
816;DHT22;25928;51.062;13.752;2022-11-25T14:24:52;9.90;1.00
816;DHT22;25928;51.062;13.752;2022-11-25T14:27:26;9.80;1.00
816;DHT22;25928;51.062;13.752;2022-11-25T14:30:07;9.80;1.00
816;DHT22;25928;51.062;13.752;2022-11-25T14:36:05;9.70;1.00
816;DHT22;25928;51.062;13.752;2022-11-25T14:38:44;9.70;1.00
816;DHT22;25928;51.062;13.752;2022-11-25T14:41:21;9.70;1.00
816;DHT22;25928;51.062;13.752;2022-11-25T14:43:52;9.70;1.00
816;DHT22;25928;51.062;13.752;2022-11-25T14:46:23;9.60;1.00
816;DHT22;25928;51.062;13.752;2022-11-25T14:49:00;9.60;1.00
816;DHT22;25928;51.062;13.752;2022-11-25T14:51:36;9.50;1.00
816;DHT22;25928;51.062;13.752;2022-11-25T14:54:06;9.40;1.00
816;DHT22;25928;51.062;13.752;2022-11-25T14:56:34;9.30;1.00
816;DHT22;25928;51.062;13.752;2022-11-25T14:59:00;9.30;1.00
816;DHT22;25928;51.062;13.752;2022-11-25T15:01:27;9.20;1.00
816;DHT22;25928;51.062;13.752;2022-11-25T15:04:16;9.20;1.00
816;DHT22;25928;51.062;13.752;2022-11-25T15:06:48;9.20;1.00
816;DHT22;25928;51.062;13.752;2022-11-25T15:09:23;9.10;1.00
816;DHT22;25928;51.062;13.752;2022-11-25T15:11:58;9.00;1.00
816;DHT22;25928;51.062;13.752;2022-11-25T15:14:33;8.80;1.00
816;DHT22;25928;51.062;13.752;2022-11-25T15:17:05;8.90;1.00
816;DHT22;25928;51.062;13.752;2022-11-25T15:19:33;8.80;1.00
816;DHT22;25928;51.062;13.752;2022-11-25T15:22:05;8.90;1.00
816;DHT22;25928;51.062;13.752;2022-11-25T15:24:41;8.80;1.00
816;DHT22;25928;51.062;13.752;2022-11-25T15:27:20;8.80;1.00
816;DHT22;25928;51.062;13.752;2022-11-25T15:29:47;8.70;1.00
816;DHT22;25928;51.062;13.752;2022-11-25T15:32:25;8.70;1.00
816;DHT22;25928;51.062;13.752;2022-11-25T15:34:53;8.70;1.00
816;DHT22;25928;51.062;13.752;2022-11-25T15:37:20;8.60;1.00
816;DHT22;25928;51.062;13.752;2022-11-25T15:39:45;8.50;1.00
816;DHT22;25928;51.062;13.752;2022-11-25T15:44:46;8.60;1.00
816;DHT22;25928;51.062;13.752;2022-11-25T15:47:26;8.70;1.00
816;DHT22;25928;51.062;13.752;2022-11-25T15:52:44;8.60;1.00
816;DHT22;25928;51.062;13.752;2022-11-25T15:55:29;8.60;1.00
816;DHT22;25928;51.062;13.752;2022-11-25T15:58:04;8.60;1.00
816;DHT22;25928;51.062;13.752;2022-11-25T16:02:57;8.60;1.00
816;DHT22;25928;51.062;13.752;2022-11-25T16:05:34;8.60;1.00
816;DHT22;25928;51.062;13.752;2022-11-25T16:08:29;8.60;1.00
816;DHT22;25928;51.062;13.752;2022-11-25T16:10:58;8.50;1.00
816;DHT22;25928;51.062;13.752;2022-11-25T16:13:31;8.50;1.00
816;DHT22;25928;51.062;13.752;2022-11-25T16:21:16;8.60;1.00
816;DHT22;25928;51.062;13.752;2022-11-25T16:29:33;8.60;1.00
816;DHT22;25928;51.062;13.752;2022-11-25T16:32:09;8.60;1.00
816;DHT22;25928;51.062;13.752;2022-11-25T16:34:36;8.60;1.00
816;DHT22;25928;51.062;13.752;2022-11-25T16:37:02;8.70;1.00
816;DHT22;25928;51.062;13.752;2022-11-25T16:39:27;8.60;1.00
816;DHT22;25928;51.062;13.752;2022-11-25T16:41:55;8.70;1.00
816;DHT22;25928;51.062;13.752;2022-11-25T16:44:24;8.60;1.00
816;DHT22;25928;51.062;13.752;2022-11-25T16:46:50;8.60;1.00
816;DHT22;25928;51.062;13.752;2022-11-25T16:49:18;8.60;1.00
816;DHT22;25928;51.062;13.752;2022-11-25T16:51:44;8.50;1.00
816;DHT22;25928;51.062;13.752;2022-11-25T16:54:09;8.60;1.00
816;DHT22;25928;51.062;13.752;2022-11-25T16:56:39;8.50;1.00
816;DHT22;25928;51.062;13.752;2022-11-25T16:59:10;8.50;1.00
816;DHT22;25928;51.062;13.752;2022-11-25T17:01:38;8.50;1.00
816;DHT22;25928;51.062;13.752;2022-11-25T17:04:03;8.50;1.00
816;DHT22;25928;51.062;13.752;2022-11-25T17:11:30;8.40;1.00
816;DHT22;25928;51.062;13.752;2022-11-25T17:14:04;8.40;1.00
816;DHT22;25928;51.062;13.752;2022-11-25T17:16:30;8.40;1.00
816;DHT22;25928;51.062;13.752;2022-11-25T17:18:57;8.30;1.00
816;DHT22;25928;51.062;13.752;2022-11-25T17:21:24;8.40;1.00
816;DHT22;25928;51.062;13.752;2022-11-25T17:23:52;8.40;1.00
816;DHT22;25928;51.062;13.752;2022-11-25T17:26:24;8.30;1.00
816;DHT22;25928;51.062;13.752;2022-11-25T17:28:55;8.30;1.00
816;DHT22;25928;51.062;13.752;2022-11-25T17:31:28;8.40;1.00
816;DHT22;25928;51.062;13.752;2022-11-25T17:33:54;8.20;1.00
816;DHT22;25928;51.062;13.752;2022-11-25T17:36:21;8.30;1.00
816;DHT22;25928;51.062;13.752;2022-11-25T17:38:47;8.40;1.00
816;DHT22;25928;51.062;13.752;2022-11-25T17:41:15;8.40;1.00
816;DHT22;25928;51.062;13.752;2022-11-25T17:43:42;8.30;1.00
816;DHT22;25928;51.062;13.752;2022-11-25T17:46:10;8.40;1.00
816;DHT22;25928;51.062;13.752;2022-11-25T17:48:35;8.30;1.00
816;DHT22;25928;51.062;13.752;2022-11-25T17:51:02;8.30;1.00
816;DHT22;25928;51.062;13.752;2022-11-25T17:53:28;8.30;1.00
816;DHT22;25928;51.062;13.752;2022-11-25T17:55:54;8.30;1.00
816;DHT22;25928;51.062;13.752;2022-11-25T17:58:19;8.30;1.00
816;DHT22;25928;51.062;13.752;2022-11-25T18:00:45;8.30;1.00
816;DHT22;25928;51.062;13.752;2022-11-25T18:03:12;8.40;1.00
816;DHT22;25928;51.062;13.752;2022-11-25T18:05:37;8.40;1.00
816;DHT22;25928;51.062;13.752;2022-11-25T18:10:29;8.30;1.00
816;DHT22;25928;51.062;13.752;2022-11-25T18:12:55;8.30;1.00
816;DHT22;25928;51.062;13.752;2022-11-25T18:15:27;8.30;1.00
816;DHT22;25928;51.062;13.752;2022-11-25T18:18:00;8.40;1.00
816;DHT22;25928;51.062;13.752;2022-11-25T18:20:26;8.40;1.00
816;DHT22;25928;51.062;13.752;2022-11-25T18:22:54;8.40;1.00
816;DHT22;25928;51.062;13.752;2022-11-25T18:25:29;8.40;1.00
816;DHT22;25928;51.062;13.752;2022-11-25T18:27:56;8.40;1.00
816;DHT22;25928;51.062;13.752;2022-11-25T18:30:25;8.50;1.00
816;DHT22;25928;51.062;13.752;2022-11-25T18:35:28;8.50;1.00
816;DHT22;25928;51.062;13.752;2022-11-25T18:37:55;8.60;1.00
816;DHT22;25928;51.062;13.752;2022-11-25T18:40:25;8.60;1.00
816;DHT22;25928;51.062;13.752;2022-11-25T18:42:53;8.60;1.00
816;DHT22;25928;51.062;13.752;2022-11-25T18:45:25;8.70;1.00
816;DHT22;25928;51.062;13.752;2022-11-25T18:47:52;8.40;1.00
816;DHT22;25928;51.062;13.752;2022-11-25T18:50:22;8.40;1.00
816;DHT22;25928;51.062;13.752;2022-11-25T18:52:49;8.40;1.00
816;DHT22;25928;51.062;13.752;2022-11-25T18:55:20;8.50;1.00
816;DHT22;25928;51.062;13.752;2022-11-25T18:57:48;8.50;1.00
816;DHT22;25928;51.062;13.752;2022-11-25T19:00:18;8.50;1.00
816;DHT22;25928;51.062;13.752;2022-11-25T19:02:44;8.40;1.00
816;DHT22;25928;51.062;13.752;2022-11-25T19:05:19;8.40;1.00
816;DHT22;25928;51.062;13.752;2022-11-25T19:07:47;8.40;1.00
816;DHT22;25928;51.062;13.752;2022-11-25T19:10:15;8.50;1.00
816;DHT22;25928;51.062;13.752;2022-11-25T19:12:44;8.50;1.00
816;DHT22;25928;51.062;13.752;2022-11-25T19:15:14;8.40;1.00
816;DHT22;25928;51.062;13.752;2022-11-25T19:17:42;8.40;1.00
816;DHT22;25928;51.062;13.752;2022-11-25T19:20:13;8.40;1.00
816;DHT22;25928;51.062;13.752;2022-11-25T19:22:39;8.30;1.00
816;DHT22;25928;51.062;13.752;2022-11-25T19:25:05;8.40;1.00
816;DHT22;25928;51.062;13.752;2022-11-25T19:27:34;8.40;1.00